createdAt,value
2018-03-28T00:00:53.193Z,90.00
2018-03-28T00:03:21.468Z,90.00
2018-03-28T00:05:49.707Z,90.00
2018-03-28T00:08:18.845Z,90.20
2018-03-28T00:10:47.082Z,90.20
2018-03-28T00:13:15.325Z,90.40
2018-03-28T00:15:43.655Z,90.50
2018-03-28T00:18:11.932Z,90.50
2018-03-28T00:20:40.181Z,90.60
2018-03-28T00:23:09.216Z,90.60
2018-03-28T00:25:37.475Z,90.60
2018-03-28T00:28:05.708Z,90.80
2018-03-28T00:30:34.749Z,90.90
2018-03-28T00:33:03.018Z,90.90
2018-03-28T00:35:31.259Z,90.80
2018-03-28T00:38:00.286Z,90.80
2018-03-28T00:40:28.528Z,90.80
2018-03-28T00:42:57.538Z,90.90
2018-03-28T00:45:26.674Z,90.90
2018-03-28T00:47:54.920Z,90.70
2018-03-28T00:50:23.173Z,90.70
2018-03-28T00:52:51.413Z,90.80
2018-03-28T00:55:19.661Z,90.90
2018-03-28T00:57:47.929Z,90.90
2018-03-28T01:00:16.202Z,91.00
2018-03-28T01:02:44.441Z,91.00
2018-03-28T01:05:13.468Z,91.00
2018-03-28T01:07:41.740Z,91.00
2018-03-28T01:10:09.988Z,91.10
2018-03-28T01:12:39.011Z,91.10
2018-03-28T01:15:07.379Z,91.00
2018-03-28T01:17:35.612Z,91.30
2018-03-28T01:20:03.884Z,91.30
2018-03-28T01:22:33.623Z,91.60
2018-03-28T01:25:02.650Z,91.60
2018-03-28T01:27:30.888Z,91.70
2018-03-28T01:29:59.193Z,91.60
2018-03-28T01:32:27.432Z,91.70
2018-03-28T01:34:56.461Z,91.70
2018-03-28T01:37:24.732Z,91.60
2018-03-28T01:39:53.104Z,91.70
2018-03-28T01:42:21.348Z,91.80
2018-03-28T01:44:50.381Z,91.80
2018-03-28T01:47:18.629Z,91.80
2018-03-28T01:49:46.941Z,91.70
2018-03-28T01:52:15.209Z,91.60
2018-03-28T01:54:43.439Z,91.30
2018-03-28T01:57:12.450Z,91.30
2018-03-28T01:59:40.701Z,91.30
2018-03-28T02:02:08.950Z,91.40
2018-03-28T02:04:37.201Z,91.40
2018-03-28T02:07:05.445Z,91.40
2018-03-28T02:09:34.451Z,91.20
2018-03-28T02:12:02.697Z,91.20
2018-03-28T02:14:31.734Z,91.50
2018-03-28T02:17:00.030Z,91.40
2018-03-28T02:19:28.281Z,91.40
2018-03-28T02:21:56.562Z,91.50
2018-03-28T02:24:24.840Z,91.40
2018-03-28T02:26:53.114Z,91.70
2018-03-28T02:29:21.363Z,91.50
2018-03-28T02:31:49.604Z,91.50
2018-03-28T02:34:17.846Z,91.60
2018-03-28T02:36:46.088Z,91.60
2018-03-28T02:39:14.312Z,91.40
2018-03-28T02:41:42.559Z,91.60
2018-03-28T02:44:10.792Z,92.00
2018-03-28T02:46:39.820Z,91.50
2018-03-28T02:49:08.055Z,91.60
2018-03-28T02:51:37.088Z,91.70
2018-03-28T02:54:05.376Z,91.60
2018-03-28T02:56:33.614Z,91.60
2018-03-28T02:59:01.862Z,91.60
2018-03-28T03:01:30.194Z,91.50
2018-03-28T03:03:58.476Z,91.50
2018-03-28T03:06:26.722Z,91.60
2018-03-28T03:08:54.960Z,91.60
2018-03-28T03:11:23.201Z,91.60
2018-03-28T03:13:51.474Z,91.60
2018-03-28T03:16:19.749Z,91.80
2018-03-28T03:18:47.983Z,91.70
2018-03-28T03:21:17.009Z,91.70
2018-03-28T03:23:45.279Z,91.70
2018-03-28T03:26:13.660Z,91.70
2018-03-28T03:28:41.901Z,91.60
2018-03-28T03:31:10.913Z,91.80
2018-03-28T03:33:39.144Z,91.80
2018-03-28T03:36:07.475Z,91.80
2018-03-28T03:38:35.723Z,91.80
2018-03-28T03:41:04.753Z,91.90
2018-03-28T03:43:32.996Z,91.80
2018-03-28T03:46:01.996Z,92.10
2018-03-28T03:48:30.301Z,92.10
2018-03-28T03:50:58.732Z,91.90
2018-03-28T03:53:26.944Z,91.80
2018-03-28T03:55:55.220Z,91.70
2018-03-28T03:58:23.473Z,91.80
2018-03-28T04:00:51.783Z,91.70
2018-03-28T04:03:20.053Z,91.60
2018-03-28T04:05:48.290Z,91.70
2018-03-28T04:08:17.304Z,92.20
2018-03-28T04:10:45.549Z,92.20
2018-03-28T04:13:14.547Z,92.20
2018-03-28T04:15:43.581Z,92.20
2018-03-28T04:18:11.852Z,92.20
2018-03-28T04:20:40.106Z,92.20
2018-03-28T04:23:08.405Z,92.20
2018-03-28T04:25:36.697Z,92.20
2018-03-28T04:28:04.927Z,92.40
2018-03-28T04:30:33.172Z,92.50
2018-03-28T04:33:01.506Z,92.60
2018-03-28T04:35:29.753Z,92.50
2018-03-28T04:37:58.028Z,92.50
2018-03-28T04:40:26.333Z,92.60
2018-03-28T04:42:54.715Z,92.60
2018-03-28T04:45:23.031Z,92.70
2018-03-28T04:47:51.253Z,92.50
2018-03-28T04:50:19.554Z,92.40
2018-03-28T04:52:47.812Z,92.20
2018-03-28T04:55:16.089Z,91.90
2018-03-28T04:57:44.341Z,91.60
2018-03-28T05:00:12.784Z,91.70
2018-03-28T05:02:41.001Z,91.50
2018-03-28T05:05:09.284Z,91.50
2018-03-28T05:07:37.565Z,91.90
2018-03-28T05:10:05.936Z,92.00
2018-03-28T05:12:34.211Z,92.30
2018-03-28T05:15:02.483Z,92.40
2018-03-28T05:17:31.507Z,92.60
2018-03-28T05:19:59.757Z,93.00
2018-03-28T05:22:28.040Z,92.80
2018-03-28T05:24:57.028Z,92.90
2018-03-28T05:27:25.306Z,92.90
2018-03-28T05:29:53.572Z,92.90
2018-03-28T05:32:21.830Z,93.00
2018-03-28T05:34:50.845Z,93.20
2018-03-28T05:37:19.093Z,93.20
2018-03-28T05:39:48.091Z,93.50
2018-03-28T05:42:16.324Z,93.50
2018-03-28T05:44:44.559Z,93.70
2018-03-28T05:47:12.841Z,93.10
2018-03-28T05:49:41.119Z,92.90
2018-03-28T05:52:09.388Z,93.00
2018-03-28T05:54:37.656Z,93.10
2018-03-28T05:57:05.931Z,92.80
2018-03-28T05:59:34.230Z,92.70
2018-03-28T06:02:02.468Z,92.60
2018-03-28T06:04:30.770Z,92.40
2018-03-28T06:06:59.005Z,92.60
2018-03-28T06:09:28.012Z,92.90
2018-03-28T06:11:56.253Z,92.90
2018-03-28T06:14:24.588Z,93.00
2018-03-28T06:16:52.823Z,93.30
2018-03-28T06:19:21.840Z,93.20
2018-03-28T06:21:50.129Z,93.20
2018-03-28T06:24:18.393Z,92.80
2018-03-28T06:26:46.633Z,93.10
2018-03-28T06:29:15.650Z,93.00
2018-03-28T06:31:43.948Z,93.00
2018-03-28T06:34:12.186Z,93.20
2018-03-28T06:36:41.202Z,92.90
2018-03-28T06:39:09.436Z,92.90
2018-03-28T06:41:38.448Z,92.80
2018-03-28T06:44:07.476Z,92.40
2018-03-28T06:46:35.752Z,92.40
2018-03-28T06:49:04.029Z,92.30
2018-03-28T06:54:15.420Z,91.80
2018-03-28T06:56:43.699Z,91.80
2018-03-28T06:59:11.947Z,91.40
2018-03-28T07:01:40.253Z,90.90
2018-03-28T07:04:08.627Z,91.00
2018-03-28T07:06:36.894Z,90.70
2018-03-28T07:09:05.996Z,90.70
2018-03-28T07:11:34.232Z,90.60
2018-03-28T07:14:03.236Z,90.70
2018-03-28T07:16:31.532Z,90.70
2018-03-28T07:18:59.821Z,90.30
2018-03-28T07:21:28.096Z,90.00
2018-03-28T07:23:56.332Z,90.10
2018-03-28T07:26:25.335Z,90.00
2018-03-28T07:28:53.634Z,90.00
2018-03-28T07:31:21.928Z,89.90
2018-03-28T07:33:50.184Z,89.10
2018-03-28T07:36:18.457Z,88.20
2018-03-28T07:38:46.781Z,87.90
2018-03-28T07:41:15.013Z,88.20
2018-03-28T07:43:43.262Z,88.30
2018-03-28T07:46:11.500Z,88.40
2018-03-28T07:48:39.736Z,89.20
2018-03-28T07:51:08.003Z,88.40
2018-03-28T07:53:36.290Z,89.30
2018-03-28T07:56:04.566Z,89.60
2018-03-28T07:58:32.845Z,90.30
2018-03-28T08:01:01.113Z,90.40
2018-03-28T08:03:29.395Z,90.90
2018-03-28T08:05:57.628Z,91.50
2018-03-28T08:08:26.659Z,91.30
2018-03-28T08:10:54.953Z,91.30
2018-03-28T08:13:23.200Z,91.40
2018-03-28T08:15:51.528Z,91.70
2018-03-28T08:18:19.767Z,91.70
2018-03-28T08:20:48.015Z,91.80
2018-03-28T08:23:16.273Z,91.80
2018-03-28T08:25:45.314Z,91.50
2018-03-28T08:28:13.539Z,91.50
2018-03-28T08:30:42.580Z,91.30
2018-03-28T08:33:10.827Z,91.30
2018-03-28T08:35:39.072Z,91.60
2018-03-28T08:38:08.099Z,91.90
2018-03-28T08:40:36.353Z,91.60
2018-03-28T08:43:05.394Z,92.00
2018-03-28T08:45:33.648Z,92.00
2018-03-28T08:48:01.905Z,92.00
2018-03-28T08:50:30.934Z,92.30
2018-03-28T08:52:59.308Z,92.30
2018-03-28T08:55:27.586Z,92.70
2018-03-28T08:57:55.842Z,92.30
2018-03-28T09:00:24.105Z,92.40
2018-03-28T09:02:53.850Z,92.00
2018-03-28T09:05:22.123Z,92.00
2018-03-28T09:07:50.383Z,91.90
2018-03-28T09:10:18.631Z,91.40
2018-03-28T09:12:47.655Z,91.20
2018-03-28T09:15:15.944Z,91.30
2018-03-28T09:17:44.311Z,90.60
2018-03-28T09:20:12.549Z,90.40
2018-03-28T09:22:42.398Z,89.20
2018-03-28T09:25:10.650Z,89.30
2018-03-28T09:27:38.960Z,87.90
2018-03-28T09:30:07.202Z,87.20
2018-03-28T09:32:35.465Z,84.90
2018-03-28T09:35:04.488Z,84.30
2018-03-28T09:37:32.772Z,84.30
2018-03-28T09:40:01.041Z,83.20
2018-03-28T09:42:29.317Z,83.70
2018-03-28T09:44:57.601Z,82.50
2018-03-28T09:47:25.879Z,83.30
2018-03-28T09:49:54.107Z,85.40
2018-03-28T09:52:23.123Z,88.20
2018-03-28T09:54:51.420Z,88.20
2018-03-28T09:57:19.803Z,88.80
2018-03-28T09:59:48.049Z,90.10
2018-03-28T10:02:16.289Z,90.50
2018-03-28T10:04:49.354Z,90.20
2018-03-28T10:07:17.611Z,90.10
2018-03-28T10:09:45.877Z,90.90
2018-03-28T10:12:14.121Z,91.10
2018-03-28T10:14:43.158Z,91.30
2018-03-28T10:17:11.398Z,91.30
2018-03-28T10:19:39.712Z,91.30
2018-03-28T10:22:07.953Z,91.80
2018-03-28T10:24:36.195Z,92.30
2018-03-28T10:27:04.444Z,92.40
2018-03-28T10:29:32.706Z,91.70
2018-03-28T10:32:00.974Z,91.80
2018-03-28T10:34:29.249Z,92.00
2018-03-28T10:36:57.905Z,92.50
2018-03-28T10:39:26.209Z,92.40
2018-03-28T10:41:54.481Z,92.70
2018-03-28T10:44:22.760Z,92.50
2018-03-28T10:46:51.007Z,92.80
2018-03-28T10:49:19.325Z,93.00
2018-03-28T10:51:47.570Z,92.40
2018-03-28T10:54:15.821Z,92.20
2018-03-28T10:56:44.844Z,92.30
2018-03-28T10:59:13.088Z,92.30
2018-03-28T11:01:42.131Z,92.70
2018-03-28T11:04:10.397Z,92.70
2018-03-28T11:06:38.655Z,92.40
2018-03-28T11:09:06.912Z,92.80
2018-03-28T11:11:35.917Z,93.10
2018-03-28T11:14:04.169Z,93.10
2018-03-28T11:16:33.187Z,93.60
2018-03-28T11:19:01.459Z,93.70
2018-03-28T11:21:29.723Z,93.50
2018-03-28T11:23:58.742Z,93.60
2018-03-28T11:26:26.980Z,93.50
2018-03-28T11:28:55.989Z,93.60
2018-03-28T11:31:24.237Z,93.60
2018-03-28T11:33:52.472Z,93.80
2018-03-28T11:36:20.729Z,93.80
2018-03-28T11:38:48.972Z,93.70
2018-03-28T11:41:17.995Z,93.20
2018-03-28T11:43:46.246Z,93.20
2018-03-28T11:46:15.373Z,92.60
2018-03-28T11:48:43.622Z,92.60
2018-03-28T11:51:12.642Z,92.30
2018-03-28T11:53:40.897Z,92.30
2018-03-28T11:56:09.138Z,91.90
2018-03-28T11:58:37.379Z,91.90
2018-03-28T12:01:05.625Z,91.10
2018-03-28T12:03:33.890Z,91.30
2018-03-28T12:06:02.136Z,91.10
2018-03-28T12:08:30.393Z,90.90
2018-03-28T12:10:58.637Z,91.50
2018-03-28T12:13:26.893Z,91.40
2018-03-28T12:15:55.138Z,91.60
2018-03-28T12:18:23.381Z,91.80
2018-03-28T12:20:51.633Z,92.10
2018-03-28T12:23:27.616Z,92.70
2018-03-28T12:25:55.862Z,92.30
2018-03-28T12:28:26.914Z,92.00
2018-03-28T12:30:55.163Z,92.00
2018-03-28T12:33:23.461Z,91.80
2018-03-28T12:35:51.740Z,91.80
2018-03-28T12:38:20.056Z,92.40
2018-03-28T12:40:48.290Z,92.80
2018-03-28T12:43:16.560Z,92.70
2018-03-28T12:45:44.827Z,92.60
2018-03-28T12:48:13.085Z,92.80
2018-03-28T12:50:42.095Z,92.80
2018-03-28T12:53:10.345Z,92.80
2018-03-28T12:55:39.395Z,93.80
2018-03-28T12:58:07.640Z,93.90
2018-03-28T13:00:35.916Z,93.30
2018-03-28T13:03:04.195Z,92.90
2018-03-28T13:05:32.483Z,92.60
2018-03-28T13:08:00.887Z,93.00
2018-03-28T13:10:29.144Z,93.30
2018-03-28T13:12:57.513Z,93.50
2018-03-28T13:15:25.787Z,93.80
2018-03-28T13:17:54.051Z,93.90
2018-03-28T13:20:22.327Z,94.00
2018-03-28T13:22:50.564Z,93.80
2018-03-28T13:25:19.573Z,93.90
2018-03-28T13:27:47.807Z,93.90
2018-03-28T13:30:16.048Z,94.20
2018-03-28T13:32:44.284Z,94.30
2018-03-28T13:35:13.319Z,95.00
2018-03-28T13:37:41.567Z,95.00
2018-03-28T13:40:09.799Z,94.80
2018-03-28T13:42:38.050Z,94.90
2018-03-28T13:45:06.313Z,94.90
2018-03-28T13:47:34.580Z,95.10
2018-03-28T13:50:02.819Z,95.10
2018-03-28T13:52:31.849Z,95.50
2018-03-28T13:55:00.094Z,95.50
2018-03-28T13:57:29.112Z,95.50
2018-03-28T13:59:57.410Z,95.50
2018-03-28T14:02:25.671Z,95.40
2018-03-28T14:04:53.896Z,95.20
2018-03-28T14:07:22.149Z,95.10
2018-03-28T14:09:50.399Z,95.20
2018-03-28T14:12:18.677Z,95.60
2018-03-28T14:14:46.922Z,95.50
2018-03-28T14:17:15.951Z,95.30
2018-03-28T14:19:44.215Z,95.30
2018-03-28T14:22:15.838Z,95.70
2018-03-28T14:24:44.066Z,95.80
2018-03-28T14:27:12.316Z,95.60
2018-03-28T14:29:40.595Z,95.50
2018-03-28T14:32:09.137Z,95.30
2018-03-28T14:34:37.592Z,95.60
2018-03-28T14:37:05.833Z,95.70
2018-03-28T14:39:34.085Z,95.80
2018-03-28T14:42:02.333Z,95.90
2018-03-28T14:44:31.379Z,96.00
2018-03-28T14:46:59.625Z,96.00
2018-03-28T14:49:27.872Z,96.40
2018-03-28T14:51:56.456Z,96.40
2018-03-28T14:54:24.835Z,96.20
2018-03-28T14:56:53.850Z,96.30
2018-03-28T14:59:22.155Z,96.20
2018-03-28T15:01:50.404Z,96.40
2018-03-28T15:04:18.656Z,96.40
2018-03-28T15:06:47.692Z,96.60
2018-03-28T15:09:15.937Z,96.60
2018-03-28T15:11:44.967Z,96.90
2018-03-28T15:14:13.221Z,96.90
2018-03-28T15:16:41.512Z,96.90
2018-03-28T15:19:09.837Z,96.90
2018-03-28T15:21:38.063Z,97.10
2018-03-28T15:24:06.322Z,97.40
2018-03-28T15:26:34.627Z,97.30
2018-03-28T15:29:02.968Z,97.00
2018-03-28T15:31:31.225Z,97.10
2018-03-28T15:33:59.458Z,97.10
2018-03-28T15:36:27.702Z,97.20
2018-03-28T15:38:55.952Z,97.20
2018-03-28T15:41:25.137Z,97.30
2018-03-28T15:43:53.369Z,97.30
2018-03-28T15:46:21.642Z,97.00
2018-03-28T15:48:49.880Z,97.10
2018-03-28T15:51:18.912Z,96.90
2018-03-28T15:53:47.159Z,96.90
2018-03-28T15:56:15.462Z,97.00
2018-03-28T15:58:44.087Z,97.20
2018-03-28T16:01:12.421Z,97.20
2018-03-28T16:03:40.702Z,97.30
2018-03-28T16:06:08.967Z,97.50
2018-03-28T16:08:37.291Z,97.50
2018-03-28T16:11:05.671Z,97.40
2018-03-28T16:13:33.992Z,97.40
2018-03-28T16:16:02.272Z,97.50
2018-03-28T16:18:30.543Z,97.70
2018-03-28T16:20:58.820Z,97.70
2018-03-28T16:23:27.078Z,97.80
2018-03-28T16:25:55.373Z,97.90
2018-03-28T16:28:23.631Z,97.70
2018-03-28T16:30:51.927Z,97.50
2018-03-28T16:33:20.197Z,97.60
2018-03-28T16:35:48.453Z,97.80
2018-03-28T16:38:16.763Z,97.80
2018-03-28T16:40:45.026Z,97.90
2018-03-28T16:43:13.325Z,97.80
2018-03-28T16:45:41.554Z,98.20
2018-03-28T16:48:09.824Z,98.00
2018-03-28T16:50:38.842Z,98.00
2018-03-28T16:53:07.092Z,98.00
2018-03-28T16:55:35.362Z,98.20
2018-03-28T16:58:04.403Z,98.60
2018-03-28T17:00:32.645Z,98.60
2018-03-28T17:03:00.905Z,98.60
2018-03-28T17:05:29.917Z,98.50
2018-03-28T17:07:58.218Z,98.50
2018-03-28T17:10:26.469Z,98.50
2018-03-28T17:12:54.756Z,98.50
2018-03-28T17:15:23.037Z,98.40
2018-03-28T17:17:51.308Z,98.50
2018-03-28T17:20:19.696Z,98.50
2018-03-28T17:22:47.960Z,98.60
2018-03-28T17:25:16.232Z,98.50
2018-03-28T17:27:44.483Z,98.60
2018-03-28T17:30:13.492Z,98.80
2018-03-28T17:32:41.785Z,98.80
2018-03-28T17:35:10.052Z,98.90
2018-03-28T17:37:38.301Z,98.90
2018-03-28T17:40:07.320Z,99.20
2018-03-28T17:42:35.606Z,99.20
2018-03-28T17:45:03.877Z,99.50
2018-03-28T17:47:32.178Z,99.50
2018-03-28T17:50:00.420Z,99.70
2018-03-28T17:52:28.703Z,99.80
2018-03-28T17:54:56.948Z,99.90
2018-03-28T17:57:26.529Z,99.90
2018-03-28T17:59:54.803Z,99.90
2018-03-28T18:02:23.048Z,99.90
2018-03-28T18:04:51.293Z,99.90
2018-03-28T18:07:19.586Z,99.90
2018-03-28T18:09:47.856Z,99.90
2018-03-28T18:12:16.137Z,99.90
2018-03-28T18:14:44.460Z,99.90
2018-03-28T18:17:12.698Z,99.90
2018-03-28T18:19:40.943Z,99.90
2018-03-28T18:22:09.346Z,99.90
2018-03-28T18:24:37.592Z,99.90
2018-03-28T18:27:05.832Z,99.90
2018-03-28T18:29:34.108Z,99.90
2018-03-28T18:32:02.440Z,99.90
2018-03-28T18:34:30.817Z,99.90
2018-03-28T18:36:59.141Z,99.90
2018-03-28T18:39:27.364Z,99.90
2018-03-28T18:41:55.618Z,99.90
2018-03-28T18:44:23.866Z,99.90
2018-03-28T18:46:52.122Z,99.90
2018-03-28T18:49:20.469Z,99.90
2018-03-28T18:51:48.727Z,99.90
2018-03-28T18:54:16.977Z,99.90
2018-03-28T18:56:46.018Z,99.90
2018-03-28T18:59:14.405Z,99.90
2018-03-28T19:01:42.677Z,99.90
2018-03-28T19:04:10.959Z,99.90
2018-03-28T19:06:39.523Z,99.90
2018-03-28T19:09:07.768Z,99.90
2018-03-28T19:11:36.784Z,99.90
2018-03-28T19:14:05.041Z,99.90
2018-03-28T19:16:33.394Z,99.90
2018-03-28T19:19:01.616Z,99.90
2018-03-28T19:21:29.878Z,99.90
2018-03-28T19:23:58.112Z,99.90
2018-03-28T19:26:26.385Z,99.90
2018-03-28T19:28:54.721Z,99.90
2018-03-28T19:31:23.002Z,99.90
2018-03-28T19:33:51.274Z,99.90
2018-03-28T19:36:19.561Z,99.90
2018-03-28T19:38:47.810Z,99.90
2018-03-28T19:41:16.056Z,99.90
2018-03-28T19:43:45.137Z,99.90
2018-03-28T19:46:13.348Z,99.90
2018-03-28T19:48:41.997Z,99.90
2018-03-28T19:51:10.268Z,99.90
2018-03-28T19:53:38.506Z,99.90
2018-03-28T19:56:06.745Z,99.90
2018-03-28T19:58:35.765Z,99.90
2018-03-28T20:01:04.013Z,99.90
2018-03-28T20:03:32.362Z,99.90
2018-03-28T20:06:00.577Z,99.90
2018-03-28T20:08:28.917Z,99.90
2018-03-28T20:10:57.467Z,99.90
2018-03-28T20:13:25.783Z,99.90
2018-03-28T20:15:54.033Z,99.90
2018-03-28T20:18:22.349Z,99.80
2018-03-28T20:20:51.426Z,99.90
2018-03-28T20:23:19.700Z,99.90
2018-03-28T20:25:48.178Z,99.90
2018-03-28T20:28:16.663Z,99.90
2018-03-28T20:30:45.106Z,99.80
2018-03-28T20:33:13.355Z,99.80
2018-03-28T20:35:41.599Z,99.90
2018-03-28T20:38:10.695Z,99.90
2018-03-28T20:40:38.952Z,99.90
2018-03-28T20:43:07.195Z,99.90
2018-03-28T20:45:35.441Z,99.90
2018-03-28T20:48:03.686Z,99.90
2018-03-28T20:50:31.928Z,99.90
2018-03-28T20:53:00.188Z,99.90
2018-03-28T20:55:28.505Z,99.90
2018-03-28T20:57:58.321Z,99.90
2018-03-28T21:00:26.767Z,99.90
2018-03-28T21:02:54.991Z,99.90
2018-03-28T21:05:23.999Z,99.90
2018-03-28T21:07:52.305Z,99.90
2018-03-28T21:10:20.581Z,99.90
2018-03-28T21:12:48.860Z,99.90
2018-03-28T21:15:17.113Z,99.90
2018-03-28T21:17:45.409Z,99.80
2018-03-28T21:20:13.640Z,99.70
2018-03-28T21:22:42.708Z,99.70
2018-03-28T21:25:10.909Z,99.70
2018-03-28T21:27:39.931Z,99.80
2018-03-28T21:30:08.168Z,99.80
2018-03-28T21:32:37.204Z,99.80
2018-03-28T21:35:05.439Z,99.80
2018-03-28T21:37:34.476Z,99.70
2018-03-28T21:40:03.603Z,99.60
2018-03-28T21:42:31.849Z,99.60
2018-03-28T21:45:00.116Z,99.50
2018-03-28T21:47:28.400Z,99.40
2018-03-28T21:49:56.663Z,99.10
2018-03-28T21:52:24.940Z,99.00
2018-03-28T21:54:53.199Z,99.00
2018-03-28T21:57:22.265Z,99.00
2018-03-28T21:59:50.492Z,98.90
2018-03-28T22:02:18.733Z,98.80
2018-03-28T22:04:47.739Z,98.70
2018-03-28T22:07:16.041Z,98.70
2018-03-28T22:09:44.303Z,98.70
2018-03-28T22:12:12.583Z,98.70
2018-03-28T22:14:40.831Z,98.80
2018-03-28T22:17:09.866Z,98.60
2018-03-28T22:19:38.100Z,98.60
2018-03-28T22:22:07.113Z,98.40
2018-03-28T22:24:35.354Z,98.40
2018-03-28T22:27:04.363Z,98.50
2018-03-28T22:29:32.595Z,98.50
2018-03-28T22:32:00.835Z,98.40
2018-03-28T22:34:29.087Z,98.40
2018-03-28T22:36:57.343Z,98.10
2018-03-28T22:39:26.350Z,98.00
2018-03-28T22:41:54.657Z,98.00
2018-03-28T22:44:22.897Z,98.00
2018-03-28T22:46:51.907Z,97.60
2018-03-28T22:49:20.141Z,97.60
2018-03-28T22:51:49.900Z,97.20
2018-03-28T22:54:18.141Z,97.20
2018-03-28T22:56:47.168Z,97.40
2018-03-28T22:59:15.457Z,97.10
2018-03-28T23:01:43.697Z,97.30
2018-03-28T23:04:11.941Z,97.30
2018-03-28T23:06:40.269Z,97.00
2018-03-28T23:09:08.516Z,96.90
2018-03-28T23:11:37.539Z,96.80
2018-03-28T23:14:05.779Z,96.80
2018-03-28T23:16:34.795Z,96.80
2018-03-28T23:19:03.055Z,96.70
2018-03-28T23:21:32.068Z,95.00
2018-03-28T23:24:00.348Z,95.00
2018-03-28T23:26:28.580Z,95.20
2018-03-28T23:28:56.897Z,93.90
2018-03-28T23:31:25.177Z,93.40
2018-03-28T23:33:53.466Z,93.20
2018-03-28T23:36:21.704Z,94.00
2018-03-28T23:38:50.718Z,93.60
2018-03-28T23:41:18.966Z,93.60
2018-03-28T23:43:47.981Z,93.60
2018-03-28T23:46:16.208Z,93.70
2018-03-28T23:48:44.540Z,93.20
2018-03-28T23:51:12.772Z,93.30
2018-03-28T23:53:41.781Z,93.20
2018-03-28T23:56:10.785Z,93.60
2018-03-28T23:58:39.020Z,93.60
